sensor_id;sensor_type;location;lat;lon;timestamp;P1;durP1;ratioP1;P2;durP2;ratioP2
71570;SDS011;59407;42.682;23.322;2023-05-07T00:01:00;3.77;;;2.93;;
71570;SDS011;59407;42.682;23.322;2023-05-07T00:03:26;4.63;;;2.50;;
71570;SDS011;59407;42.682;23.322;2023-05-07T00:05:52;3.90;;;2.27;;
71570;SDS011;59407;42.682;23.322;2023-05-07T00:08:18;5.20;;;2.58;;
71570;SDS011;59407;42.682;23.322;2023-05-07T00:10:43;5.20;;;2.00;;
71570;SDS011;59407;42.682;23.322;2023-05-07T00:13:09;4.70;;;3.25;;
71570;SDS011;59407;42.682;23.322;2023-05-07T00:15:35;4.70;;;2.80;;
71570;SDS011;59407;42.682;23.322;2023-05-07T00:18:01;4.37;;;2.50;;
71570;SDS011;59407;42.682;23.322;2023-05-07T00:20:26;4.27;;;2.60;;
71570;SDS011;59407;42.682;23.322;2023-05-07T00:22:51;4.53;;;2.00;;
71570;SDS011;59407;42.682;23.322;2023-05-07T00:25:17;7.00;;;2.85;;
71570;SDS011;59407;42.682;23.322;2023-05-07T00:27:44;4.25;;;2.17;;
71570;SDS011;59407;42.682;23.322;2023-05-07T00:30:10;2.67;;;2.00;;
71570;SDS011;59407;42.682;23.322;2023-05-07T00:32:36;2.47;;;1.75;;
71570;SDS011;59407;42.682;23.322;2023-05-07T00:35:01;4.90;;;2.40;;
71570;SDS011;59407;42.682;23.322;2023-05-07T00:37:27;4.53;;;1.88;;
71570;SDS011;59407;42.682;23.322;2023-05-07T00:39:53;3.47;;;2.43;;
71570;SDS011;59407;42.682;23.322;2023-05-07T00:42:18;4.77;;;2.20;;
71570;SDS011;59407;42.682;23.322;2023-05-07T00:44:43;6.07;;;2.60;;
71570;SDS011;59407;42.682;23.322;2023-05-07T00:47:09;6.87;;;2.90;;
71570;SDS011;59407;42.682;23.322;2023-05-07T00:49:44;3.53;;;2.60;;
71570;SDS011;59407;42.682;23.322;2023-05-07T00:52:13;5.00;;;2.13;;
71570;SDS011;59407;42.682;23.322;2023-05-07T00:54:41;3.97;;;2.28;;
71570;SDS011;59407;42.682;23.322;2023-05-07T00:57:06;3.88;;;2.28;;
71570;SDS011;59407;42.682;23.322;2023-05-07T00:59:36;3.80;;;1.77;;
71570;SDS011;59407;42.682;23.322;2023-05-07T01:02:03;3.80;;;2.35;;
71570;SDS011;59407;42.682;23.322;2023-05-07T01:04:29;3.87;;;2.03;;
71570;SDS011;59407;42.682;23.322;2023-05-07T01:06:55;4.47;;;2.70;;
71570;SDS011;59407;42.682;23.322;2023-05-07T01:09:21;3.40;;;1.73;;
71570;SDS011;59407;42.682;23.322;2023-05-07T01:11:47;3.67;;;2.57;;
71570;SDS011;59407;42.682;23.322;2023-05-07T01:14:14;6.50;;;3.50;;
71570;SDS011;59407;42.682;23.322;2023-05-07T01:16:40;3.10;;;2.03;;
71570;SDS011;59407;42.682;23.322;2023-05-07T01:19:06;4.80;;;2.75;;
71570;SDS011;59407;42.682;23.322;2023-05-07T01:21:33;3.20;;;1.90;;
71570;SDS011;59407;42.682;23.322;2023-05-07T01:23:59;7.30;;;4.13;;
71570;SDS011;59407;42.682;23.322;2023-05-07T01:26:25;3.83;;;2.33;;
71570;SDS011;59407;42.682;23.322;2023-05-07T01:28:51;7.50;;;2.55;;
71570;SDS011;59407;42.682;23.322;2023-05-07T01:31:17;4.13;;;2.57;;
71570;SDS011;59407;42.682;23.322;2023-05-07T01:33:42;3.67;;;2.00;;
71570;SDS011;59407;42.682;23.322;2023-05-07T01:36:09;3.10;;;2.13;;
71570;SDS011;59407;42.682;23.322;2023-05-07T01:38:36;5.23;;;2.77;;
71570;SDS011;59407;42.682;23.322;2023-05-07T01:41:01;3.90;;;2.13;;
71570;SDS011;59407;42.682;23.322;2023-05-07T01:43:28;9.65;;;2.58;;
71570;SDS011;59407;42.682;23.322;2023-05-07T01:45:54;3.67;;;2.67;;
71570;SDS011;59407;42.682;23.322;2023-05-07T01:48:20;4.93;;;2.20;;
71570;SDS011;59407;42.682;23.322;2023-05-07T01:50:46;3.30;;;2.45;;
71570;SDS011;59407;42.682;23.322;2023-05-07T01:53:12;3.00;;;2.00;;
71570;SDS011;59407;42.682;23.322;2023-05-07T01:55:37;2.63;;;1.93;;
71570;SDS011;59407;42.682;23.322;2023-05-07T01:58:03;3.23;;;2.27;;
71570;SDS011;59407;42.682;23.322;2023-05-07T02:00:29;2.50;;;1.92;;
71570;SDS011;59407;42.682;23.322;2023-05-07T02:02:54;3.30;;;2.30;;
71570;SDS011;59407;42.682;23.322;2023-05-07T02:05:20;5.32;;;2.00;;
71570;SDS011;59407;42.682;23.322;2023-05-07T02:07:45;1.93;;;1.43;;
71570;SDS011;59407;42.682;23.322;2023-05-07T02:10:11;2.13;;;1.67;;
71570;SDS011;59407;42.682;23.322;2023-05-07T02:12:36;5.27;;;1.83;;
71570;SDS011;59407;42.682;23.322;2023-05-07T02:15:02;3.30;;;2.70;;
71570;SDS011;59407;42.682;23.322;2023-05-07T02:17:27;2.33;;;1.40;;
71570;SDS011;59407;42.682;23.322;2023-05-07T02:19:56;2.58;;;1.65;;
71570;SDS011;59407;42.682;23.322;2023-05-07T02:22:22;3.40;;;1.80;;
71570;SDS011;59407;42.682;23.322;2023-05-07T02:24:47;2.07;;;1.27;;
71570;SDS011;59407;42.682;23.322;2023-05-07T02:27:13;2.93;;;1.73;;
71570;SDS011;59407;42.682;23.322;2023-05-07T02:29:38;2.28;;;1.35;;
71570;SDS011;59407;42.682;23.322;2023-05-07T02:32:04;3.20;;;2.40;;
71570;SDS011;59407;42.682;23.322;2023-05-07T02:34:29;3.88;;;1.83;;
71570;SDS011;59407;42.682;23.322;2023-05-07T02:36:55;5.43;;;3.13;;
71570;SDS011;59407;42.682;23.322;2023-05-07T02:39:20;3.30;;;1.93;;
71570;SDS011;59407;42.682;23.322;2023-05-07T02:41:46;2.50;;;1.47;;
71570;SDS011;59407;42.682;23.322;2023-05-07T02:44:11;2.65;;;2.00;;
71570;SDS011;59407;42.682;23.322;2023-05-07T02:46:37;3.00;;;2.03;;
71570;SDS011;59407;42.682;23.322;2023-05-07T02:49:02;2.60;;;1.63;;
71570;SDS011;59407;42.682;23.322;2023-05-07T02:51:27;2.43;;;1.23;;
71570;SDS011;59407;42.682;23.322;2023-05-07T02:53:55;2.95;;;2.03;;
71570;SDS011;59407;42.682;23.322;2023-05-07T02:56:20;2.23;;;1.37;;
71570;SDS011;59407;42.682;23.322;2023-05-07T02:58:46;2.85;;;1.92;;
71570;SDS011;59407;42.682;23.322;2023-05-07T03:01:11;2.67;;;1.90;;
71570;SDS011;59407;42.682;23.322;2023-05-07T03:03:39;2.65;;;1.73;;
71570;SDS011;59407;42.682;23.322;2023-05-07T03:06:04;3.00;;;1.43;;
71570;SDS011;59407;42.682;23.322;2023-05-07T03:08:30;4.63;;;2.05;;
71570;SDS011;59407;42.682;23.322;2023-05-07T03:10:55;2.43;;;1.80;;
71570;SDS011;59407;42.682;23.322;2023-05-07T03:13:21;2.42;;;1.65;;
71570;SDS011;59407;42.682;23.322;2023-05-07T03:15:47;1.60;;;0.80;;
71570;SDS011;59407;42.682;23.322;2023-05-07T03:18:12;2.97;;;1.80;;
71570;SDS011;59407;42.682;23.322;2023-05-07T03:20:37;2.97;;;1.67;;
71570;SDS011;59407;42.682;23.322;2023-05-07T03:23:03;3.97;;;1.90;;
71570;SDS011;59407;42.682;23.322;2023-05-07T03:25:28;3.43;;;1.70;;
71570;SDS011;59407;42.682;23.322;2023-05-07T03:27:56;2.45;;;1.67;;
71570;SDS011;59407;42.682;23.322;2023-05-07T03:30:22;3.27;;;2.17;;
71570;SDS011;59407;42.682;23.322;2023-05-07T03:32:47;5.67;;;2.87;;
71570;SDS011;59407;42.682;23.322;2023-05-07T03:35:13;2.57;;;1.33;;
71570;SDS011;59407;42.682;23.322;2023-05-07T03:37:38;5.40;;;1.88;;
71570;SDS011;59407;42.682;23.322;2023-05-07T03:40:04;8.77;;;2.53;;
71570;SDS011;59407;42.682;23.322;2023-05-07T03:42:30;4.57;;;2.38;;
71570;SDS011;59407;42.682;23.322;2023-05-07T03:44:56;2.80;;;1.47;;
71570;SDS011;59407;42.682;23.322;2023-05-07T03:47:21;3.17;;;1.97;;
71570;SDS011;59407;42.682;23.322;2023-05-07T03:49:46;3.30;;;2.35;;
71570;SDS011;59407;42.682;23.322;2023-05-07T03:52:13;4.83;;;2.43;;
71570;SDS011;59407;42.682;23.322;2023-05-07T03:54:39;5.68;;;2.72;;
71570;SDS011;59407;42.682;23.322;2023-05-07T03:57:04;3.70;;;2.87;;
71570;SDS011;59407;42.682;23.322;2023-05-07T03:59:30;4.07;;;2.47;;
71570;SDS011;59407;42.682;23.322;2023-05-07T04:01:55;3.38;;;2.05;;
71570;SDS011;59407;42.682;23.322;2023-05-07T04:04:21;3.63;;;2.20;;
71570;SDS011;59407;42.682;23.322;2023-05-07T04:06:46;3.90;;;2.00;;
71570;SDS011;59407;42.682;23.322;2023-05-07T04:09:12;3.10;;;2.17;;
71570;SDS011;59407;42.682;23.322;2023-05-07T04:11:37;5.75;;;2.67;;
71570;SDS011;59407;42.682;23.322;2023-05-07T04:14:05;5.80;;;2.00;;
71570;SDS011;59407;42.682;23.322;2023-05-07T04:16:30;3.50;;;1.90;;
71570;SDS011;59407;42.682;23.322;2023-05-07T04:18:56;3.37;;;2.23;;
71570;SDS011;59407;42.682;23.322;2023-05-07T04:21:21;3.53;;;1.93;;
71570;SDS011;59407;42.682;23.322;2023-05-07T04:23:47;5.50;;;2.47;;
71570;SDS011;59407;42.682;23.322;2023-05-07T04:26:12;3.27;;;2.27;;
71570;SDS011;59407;42.682;23.322;2023-05-07T04:28:38;4.25;;;2.92;;
71570;SDS011;59407;42.682;23.322;2023-05-07T04:31:04;2.95;;;1.95;;
71570;SDS011;59407;42.682;23.322;2023-05-07T04:33:30;4.20;;;2.60;;
71570;SDS011;59407;42.682;23.322;2023-05-07T04:35:55;3.35;;;2.53;;
71570;SDS011;59407;42.682;23.322;2023-05-07T04:38:21;2.67;;;1.63;;
71570;SDS011;59407;42.682;23.322;2023-05-07T04:40:48;3.97;;;2.47;;
71570;SDS011;59407;42.682;23.322;2023-05-07T04:43:14;5.97;;;3.33;;
71570;SDS011;59407;42.682;23.322;2023-05-07T04:45:39;4.50;;;2.03;;
71570;SDS011;59407;42.682;23.322;2023-05-07T04:48:06;7.25;;;2.75;;
71570;SDS011;59407;42.682;23.322;2023-05-07T04:50:32;3.90;;;2.97;;
71570;SDS011;59407;42.682;23.322;2023-05-07T04:52:57;4.60;;;2.83;;
71570;SDS011;59407;42.682;23.322;2023-05-07T04:55:23;5.47;;;2.80;;
71570;SDS011;59407;42.682;23.322;2023-05-07T04:57:48;5.47;;;2.33;;
71570;SDS011;59407;42.682;23.322;2023-05-07T05:00:14;5.47;;;2.53;;
71570;SDS011;59407;42.682;23.322;2023-05-07T05:02:40;3.67;;;1.67;;
71570;SDS011;59407;42.682;23.322;2023-05-07T05:05:06;3.80;;;2.50;;
71570;SDS011;59407;42.682;23.322;2023-05-07T05:07:32;4.63;;;2.50;;
71570;SDS011;59407;42.682;23.322;2023-05-07T05:09:57;4.10;;;2.17;;
71570;SDS011;59407;42.682;23.322;2023-05-07T05:12:23;6.20;;;2.00;;
71570;SDS011;59407;42.682;23.322;2023-05-07T05:14:48;4.90;;;2.60;;
71570;SDS011;59407;42.682;23.322;2023-05-07T05:17:14;7.33;;;2.50;;
71570;SDS011;59407;42.682;23.322;2023-05-07T05:19:39;2.50;;;1.70;;
71570;SDS011;59407;42.682;23.322;2023-05-07T05:22:04;3.53;;;2.30;;
71570;SDS011;59407;42.682;23.322;2023-05-07T05:24:30;5.33;;;3.07;;
71570;SDS011;59407;42.682;23.322;2023-05-07T05:26:56;6.78;;;3.13;;
71570;SDS011;59407;42.682;23.322;2023-05-07T05:29:21;4.23;;;2.43;;
71570;SDS011;59407;42.682;23.322;2023-05-07T05:31:47;3.07;;;2.33;;
71570;SDS011;59407;42.682;23.322;2023-05-07T05:34:13;5.05;;;1.92;;
71570;SDS011;59407;42.682;23.322;2023-05-07T05:36:38;4.27;;;2.23;;
71570;SDS011;59407;42.682;23.322;2023-05-07T05:39:03;5.93;;;3.37;;
71570;SDS011;59407;42.682;23.322;2023-05-07T05:41:29;3.17;;;2.15;;
71570;SDS011;59407;42.682;23.322;2023-05-07T05:43:55;3.87;;;2.13;;
71570;SDS011;59407;42.682;23.322;2023-05-07T05:46:21;4.45;;;2.42;;
71570;SDS011;59407;42.682;23.322;2023-05-07T05:48:46;5.07;;;2.50;;
71570;SDS011;59407;42.682;23.322;2023-05-07T05:51:11;4.43;;;2.27;;
71570;SDS011;59407;42.682;23.322;2023-05-07T05:53:37;4.57;;;2.80;;
71570;SDS011;59407;42.682;23.322;2023-05-07T05:56:02;6.43;;;2.90;;
71570;SDS011;59407;42.682;23.322;2023-05-07T05:58:28;4.97;;;3.53;;
71570;SDS011;59407;42.682;23.322;2023-05-07T06:00:53;6.00;;;3.03;;
71570;SDS011;59407;42.682;23.322;2023-05-07T06:03:19;4.13;;;2.85;;
71570;SDS011;59407;42.682;23.322;2023-05-07T06:05:45;3.47;;;2.17;;
71570;SDS011;59407;42.682;23.322;2023-05-07T06:08:10;4.22;;;2.50;;
71570;SDS011;59407;42.682;23.322;2023-05-07T06:10:36;3.87;;;2.90;;
71570;SDS011;59407;42.682;23.322;2023-05-07T06:13:02;5.00;;;2.65;;
71570;SDS011;59407;42.682;23.322;2023-05-07T06:15:27;3.47;;;2.23;;
71570;SDS011;59407;42.682;23.322;2023-05-07T06:17:53;4.67;;;2.73;;
71570;SDS011;59407;42.682;23.322;2023-05-07T06:20:20;5.65;;;2.50;;
71570;SDS011;59407;42.682;23.322;2023-05-07T06:22:46;5.23;;;2.73;;
71570;SDS011;59407;42.682;23.322;2023-05-07T06:25:11;4.77;;;2.47;;
71570;SDS011;59407;42.682;23.322;2023-05-07T06:27:37;4.55;;;2.92;;
71570;SDS011;59407;42.682;23.322;2023-05-07T06:30:04;4.50;;;1.83;;
71570;SDS011;59407;42.682;23.322;2023-05-07T06:32:30;4.47;;;2.42;;
71570;SDS011;59407;42.682;23.322;2023-05-07T06:34:56;5.33;;;2.50;;
71570;SDS011;59407;42.682;23.322;2023-05-07T06:37:21;4.63;;;1.90;;
71570;SDS011;59407;42.682;23.322;2023-05-07T06:39:48;5.43;;;2.30;;
71570;SDS011;59407;42.682;23.322;2023-05-07T06:42:13;5.60;;;2.15;;
71570;SDS011;59407;42.682;23.322;2023-05-07T06:44:39;4.70;;;3.00;;
71570;SDS011;59407;42.682;23.322;2023-05-07T06:47:04;4.50;;;2.10;;
71570;SDS011;59407;42.682;23.322;2023-05-07T06:49:30;6.13;;;3.45;;
71570;SDS011;59407;42.682;23.322;2023-05-07T06:51:58;3.13;;;2.07;;
71570;SDS011;59407;42.682;23.322;2023-05-07T06:54:23;4.47;;;3.78;;
71570;SDS011;59407;42.682;23.322;2023-05-07T06:56:49;4.03;;;2.63;;
71570;SDS011;59407;42.682;23.322;2023-05-07T06:59:14;4.30;;;2.67;;
71570;SDS011;59407;42.682;23.322;2023-05-07T07:01:40;3.38;;;1.90;;
71570;SDS011;59407;42.682;23.322;2023-05-07T07:04:07;3.35;;;2.20;;
71570;SDS011;59407;42.682;23.322;2023-05-07T07:06:32;4.23;;;2.33;;
71570;SDS011;59407;42.682;23.322;2023-05-07T07:08:58;7.53;;;2.50;;
71570;SDS011;59407;42.682;23.322;2023-05-07T07:11:24;5.18;;;2.22;;
71570;SDS011;59407;42.682;23.322;2023-05-07T07:13:49;9.60;;;3.90;;
71570;SDS011;59407;42.682;23.322;2023-05-07T07:16:15;3.57;;;2.40;;
71570;SDS011;59407;42.682;23.322;2023-05-07T07:18:42;4.80;;;2.40;;
71570;SDS011;59407;42.682;23.322;2023-05-07T07:21:07;4.25;;;2.47;;
71570;SDS011;59407;42.682;23.322;2023-05-07T07:23:33;4.70;;;2.80;;
71570;SDS011;59407;42.682;23.322;2023-05-07T07:25:58;3.63;;;2.10;;
71570;SDS011;59407;42.682;23.322;2023-05-07T07:28:25;3.03;;;2.05;;
71570;SDS011;59407;42.682;23.322;2023-05-07T07:30:50;6.23;;;3.00;;
71570;SDS011;59407;42.682;23.322;2023-05-07T07:33:16;5.13;;;2.57;;
71570;SDS011;59407;42.682;23.322;2023-05-07T07:35:41;4.77;;;2.57;;
71570;SDS011;59407;42.682;23.322;2023-05-07T07:38:07;4.70;;;2.92;;
71570;SDS011;59407;42.682;23.322;2023-05-07T07:40:34;5.17;;;2.27;;
71570;SDS011;59407;42.682;23.322;2023-05-07T07:43:00;6.97;;;3.35;;
71570;SDS011;59407;42.682;23.322;2023-05-07T07:45:26;4.20;;;2.72;;
71570;SDS011;59407;42.682;23.322;2023-05-07T07:47:51;11.40;;;3.07;;
71570;SDS011;59407;42.682;23.322;2023-05-07T07:50:17;5.40;;;3.20;;
71570;SDS011;59407;42.682;23.322;2023-05-07T07:52:42;4.03;;;2.10;;
71570;SDS011;59407;42.682;23.322;2023-05-07T07:55:08;9.02;;;3.40;;
71570;SDS011;59407;42.682;23.322;2023-05-07T07:57:34;5.43;;;3.03;;
71570;SDS011;59407;42.682;23.322;2023-05-07T07:59:59;5.33;;;2.27;;
71570;SDS011;59407;42.682;23.322;2023-05-07T08:02:25;6.50;;;2.78;;
71570;SDS011;59407;42.682;23.322;2023-05-07T08:04:51;6.17;;;3.70;;
71570;SDS011;59407;42.682;23.322;2023-05-07T08:07:16;4.70;;;2.60;;
71570;SDS011;59407;42.682;23.322;2023-05-07T08:09:45;5.20;;;2.57;;
71570;SDS011;59407;42.682;23.322;2023-05-07T08:12:10;4.70;;;3.30;;
71570;SDS011;59407;42.682;23.322;2023-05-07T08:14:36;5.50;;;2.57;;
71570;SDS011;59407;42.682;23.322;2023-05-07T08:17:02;5.30;;;2.87;;
71570;SDS011;59407;42.682;23.322;2023-05-07T08:19:27;5.68;;;2.53;;
71570;SDS011;59407;42.682;23.322;2023-05-07T08:21:52;4.60;;;2.30;;
71570;SDS011;59407;42.682;23.322;2023-05-07T08:24:18;5.20;;;2.70;;
71570;SDS011;59407;42.682;23.322;2023-05-07T08:26:43;6.03;;;2.63;;
71570;SDS011;59407;42.682;23.322;2023-05-07T08:29:10;4.03;;;2.33;;
71570;SDS011;59407;42.682;23.322;2023-05-07T08:31:35;3.90;;;2.33;;
71570;SDS011;59407;42.682;23.322;2023-05-07T08:34:01;4.67;;;2.37;;
71570;SDS011;59407;42.682;23.322;2023-05-07T08:36:26;3.83;;;2.00;;
71570;SDS011;59407;42.682;23.322;2023-05-07T08:38:52;4.13;;;2.47;;
71570;SDS011;59407;42.682;23.322;2023-05-07T08:41:17;3.70;;;2.10;;
71570;SDS011;59407;42.682;23.322;2023-05-07T08:43:47;4.40;;;2.30;;
71570;SDS011;59407;42.682;23.322;2023-05-07T08:46:16;4.80;;;2.40;;
71570;SDS011;59407;42.682;23.322;2023-05-07T08:48:42;4.68;;;2.72;;
71570;SDS011;59407;42.682;23.322;2023-05-07T08:51:08;4.67;;;2.23;;
71570;SDS011;59407;42.682;23.322;2023-05-07T08:53:38;4.13;;;1.60;;
71570;SDS011;59407;42.682;23.322;2023-05-07T08:56:05;4.32;;;2.10;;
71570;SDS011;59407;42.682;23.322;2023-05-07T08:58:32;2.80;;;1.45;;
71570;SDS011;59407;42.682;23.322;2023-05-07T09:00:57;4.90;;;2.50;;
71570;SDS011;59407;42.682;23.322;2023-05-07T09:03:24;3.05;;;1.42;;
71570;SDS011;59407;42.682;23.322;2023-05-07T09:05:49;2.77;;;1.37;;
71570;SDS011;59407;42.682;23.322;2023-05-07T09:08:15;2.90;;;1.40;;
71570;SDS011;59407;42.682;23.322;2023-05-07T09:10:41;3.75;;;2.17;;
71570;SDS011;59407;42.682;23.322;2023-05-07T09:13:07;3.75;;;2.10;;
71570;SDS011;59407;42.682;23.322;2023-05-07T09:15:32;3.10;;;1.73;;
71570;SDS011;59407;42.682;23.322;2023-05-07T09:18:00;4.07;;;2.23;;
71570;SDS011;59407;42.682;23.322;2023-05-07T09:20:26;4.03;;;1.95;;
71570;SDS011;59407;42.682;23.322;2023-05-07T09:22:51;3.33;;;1.80;;
71570;SDS011;59407;42.682;23.322;2023-05-07T09:25:18;6.00;;;2.25;;
71570;SDS011;59407;42.682;23.322;2023-05-07T09:27:53;5.07;;;1.87;;
71570;SDS011;59407;42.682;23.322;2023-05-07T09:30:18;2.58;;;1.60;;
71570;SDS011;59407;42.682;23.322;2023-05-07T09:32:44;2.80;;;1.77;;
71570;SDS011;59407;42.682;23.322;2023-05-07T09:35:18;3.20;;;1.77;;
71570;SDS011;59407;42.682;23.322;2023-05-07T09:37:55;3.53;;;1.73;;
71570;SDS011;59407;42.682;23.322;2023-05-07T09:40:22;3.20;;;1.65;;
71570;SDS011;59407;42.682;23.322;2023-05-07T09:42:48;3.67;;;1.97;;
71570;SDS011;59407;42.682;23.322;2023-05-07T09:45:15;3.10;;;1.67;;
71570;SDS011;59407;42.682;23.322;2023-05-07T09:47:42;3.58;;;1.60;;
71570;SDS011;59407;42.682;23.322;2023-05-07T09:50:09;3.83;;;1.65;;
71570;SDS011;59407;42.682;23.322;2023-05-07T09:52:35;4.00;;;1.60;;
71570;SDS011;59407;42.682;23.322;2023-05-07T09:55:02;2.60;;;1.20;;
71570;SDS011;59407;42.682;23.322;2023-05-07T09:57:28;3.05;;;1.80;;
71570;SDS011;59407;42.682;23.322;2023-05-07T09:59:54;3.60;;;1.38;;
71570;SDS011;59407;42.682;23.322;2023-05-07T10:02:21;2.50;;;1.40;;
71570;SDS011;59407;42.682;23.322;2023-05-07T10:04:48;3.43;;;1.57;;
71570;SDS011;59407;42.682;23.322;2023-05-07T10:07:14;2.70;;;1.40;;
71570;SDS011;59407;42.682;23.322;2023-05-07T10:09:41;2.88;;;1.20;;
71570;SDS011;59407;42.682;23.322;2023-05-07T10:12:09;2.45;;;1.05;;
71570;SDS011;59407;42.682;23.322;2023-05-07T10:14:35;3.17;;;1.60;;
71570;SDS011;59407;42.682;23.322;2023-05-07T10:17:01;2.55;;;1.30;;
71570;SDS011;59407;42.682;23.322;2023-05-07T10:19:27;2.83;;;1.13;;
71570;SDS011;59407;42.682;23.322;2023-05-07T10:22:05;2.35;;;1.10;;
71570;SDS011;59407;42.682;23.322;2023-05-07T10:24:32;2.40;;;1.10;;
71570;SDS011;59407;42.682;23.322;2023-05-07T10:26:59;2.38;;;1.40;;
71570;SDS011;59407;42.682;23.322;2023-05-07T10:34:47;3.20;;;0.85;;
71570;SDS011;59407;42.682;23.322;2023-05-07T10:37:14;3.90;;;1.27;;
71570;SDS011;59407;42.682;23.322;2023-05-07T10:39:40;3.00;;;0.95;;
71570;SDS011;59407;42.682;23.322;2023-05-07T10:42:12;2.70;;;1.10;;
71570;SDS011;59407;42.682;23.322;2023-05-07T10:44:38;2.90;;;1.47;;
71570;SDS011;59407;42.682;23.322;2023-05-07T10:49:35;3.22;;;1.40;;
71570;SDS011;59407;42.682;23.322;2023-05-07T10:52:20;3.15;;;1.25;;
71570;SDS011;59407;42.682;23.322;2023-05-07T10:54:48;3.03;;;1.30;;
71570;SDS011;59407;42.682;23.322;2023-05-07T10:57:50;2.87;;;1.07;;
71570;SDS011;59407;42.682;23.322;2023-05-07T11:05:31;3.23;;;1.63;;
71570;SDS011;59407;42.682;23.322;2023-05-07T11:07:57;3.25;;;1.60;;
71570;SDS011;59407;42.682;23.322;2023-05-07T11:13:15;2.92;;;1.65;;
71570;SDS011;59407;42.682;23.322;2023-05-07T11:15:44;3.75;;;1.55;;
71570;SDS011;59407;42.682;23.322;2023-05-07T11:18:11;4.17;;;1.80;;
71570;SDS011;59407;42.682;23.322;2023-05-07T11:26:06;3.58;;;1.77;;
71570;SDS011;59407;42.682;23.322;2023-05-07T11:28:38;3.30;;;1.27;;
71570;SDS011;59407;42.682;23.322;2023-05-07T11:31:09;2.57;;;1.43;;
71570;SDS011;59407;42.682;23.322;2023-05-07T11:33:35;3.03;;;1.13;;
71570;SDS011;59407;42.682;23.322;2023-05-07T11:36:02;3.55;;;1.30;;
71570;SDS011;59407;42.682;23.322;2023-05-07T11:38:29;2.20;;;1.15;;
71570;SDS011;59407;42.682;23.322;2023-05-07T11:43:21;2.63;;;1.07;;
71570;SDS011;59407;42.682;23.322;2023-05-07T11:45:47;2.63;;;1.30;;
71570;SDS011;59407;42.682;23.322;2023-05-07T11:48:13;2.92;;;1.60;;
71570;SDS011;59407;42.682;23.322;2023-05-07T11:50:51;4.07;;;1.20;;
71570;SDS011;59407;42.682;23.322;2023-05-07T11:53:18;2.58;;;1.30;;
71570;SDS011;59407;42.682;23.322;2023-05-07T11:55:45;2.40;;;1.20;;
71570;SDS011;59407;42.682;23.322;2023-05-07T11:58:11;2.97;;;1.33;;
71570;SDS011;59407;42.682;23.322;2023-05-07T12:00:37;2.65;;;1.02;;
71570;SDS011;59407;42.682;23.322;2023-05-07T12:03:06;3.27;;;1.67;;
71570;SDS011;59407;42.682;23.322;2023-05-07T12:05:31;2.85;;;1.27;;
71570;SDS011;59407;42.682;23.322;2023-05-07T12:07:59;2.40;;;1.10;;
71570;SDS011;59407;42.682;23.322;2023-05-07T12:10:25;2.70;;;1.27;;
71570;SDS011;59407;42.682;23.322;2023-05-07T12:12:51;3.00;;;1.30;;
71570;SDS011;59407;42.682;23.322;2023-05-07T12:15:16;2.60;;;1.50;;
71570;SDS011;59407;42.682;23.322;2023-05-07T12:17:42;3.65;;;1.35;;
71570;SDS011;59407;42.682;23.322;2023-05-07T12:20:08;2.58;;;1.20;;
71570;SDS011;59407;42.682;23.322;2023-05-07T12:22:35;3.33;;;1.75;;
71570;SDS011;59407;42.682;23.322;2023-05-07T12:25:01;4.03;;;1.40;;
71570;SDS011;59407;42.682;23.322;2023-05-07T12:27:28;2.53;;;1.30;;
71570;SDS011;59407;42.682;23.322;2023-05-07T12:29:56;1.95;;;1.00;;
71570;SDS011;59407;42.682;23.322;2023-05-07T12:32:22;2.28;;;0.90;;
71570;SDS011;59407;42.682;23.322;2023-05-07T12:34:50;2.10;;;1.00;;
71570;SDS011;59407;42.682;23.322;2023-05-07T12:37:16;2.45;;;1.10;;
71570;SDS011;59407;42.682;23.322;2023-05-07T12:39:47;2.73;;;1.13;;
71570;SDS011;59407;42.682;23.322;2023-05-07T12:42:16;2.67;;;1.10;;
71570;SDS011;59407;42.682;23.322;2023-05-07T12:44:51;1.80;;;0.80;;
71570;SDS011;59407;42.682;23.322;2023-05-07T12:47:17;3.55;;;1.30;;
71570;SDS011;59407;42.682;23.322;2023-05-07T12:49:42;2.87;;;1.30;;
71570;SDS011;59407;42.682;23.322;2023-05-07T12:52:10;1.92;;;0.70;;
71570;SDS011;59407;42.682;23.322;2023-05-07T12:54:37;2.00;;;0.80;;
71570;SDS011;59407;42.682;23.322;2023-05-07T12:57:07;2.22;;;0.90;;
71570;SDS011;59407;42.682;23.322;2023-05-07T12:59:34;3.30;;;0.97;;
71570;SDS011;59407;42.682;23.322;2023-05-07T13:02:04;2.10;;;0.80;;
71570;SDS011;59407;42.682;23.322;2023-05-07T13:04:31;1.95;;;0.77;;
71570;SDS011;59407;42.682;23.322;2023-05-07T13:06:59;2.95;;;1.20;;
71570;SDS011;59407;42.682;23.322;2023-05-07T13:09:25;2.70;;;0.90;;
71570;SDS011;59407;42.682;23.322;2023-05-07T13:11:50;2.88;;;0.95;;
71570;SDS011;59407;42.682;23.322;2023-05-07T13:14:16;1.90;;;0.70;;
71570;SDS011;59407;42.682;23.322;2023-05-07T13:16:41;2.50;;;0.93;;
71570;SDS011;59407;42.682;23.322;2023-05-07T13:19:07;2.20;;;0.88;;
71570;SDS011;59407;42.682;23.322;2023-05-07T13:21:32;2.83;;;1.00;;
71570;SDS011;59407;42.682;23.322;2023-05-07T13:23:58;2.00;;;0.80;;
71570;SDS011;59407;42.682;23.322;2023-05-07T13:26:23;4.13;;;1.10;;
71570;SDS011;59407;42.682;23.322;2023-05-07T13:28:49;2.17;;;0.70;;
71570;SDS011;59407;42.682;23.322;2023-05-07T13:31:15;2.88;;;0.90;;
71570;SDS011;59407;42.682;23.322;2023-05-07T13:33:40;2.37;;;0.70;;
71570;SDS011;59407;42.682;23.322;2023-05-07T13:36:06;1.90;;;0.73;;
71570;SDS011;59407;42.682;23.322;2023-05-07T13:38:32;2.30;;;1.00;;
71570;SDS011;59407;42.682;23.322;2023-05-07T13:40:57;3.20;;;0.80;;
71570;SDS011;59407;42.682;23.322;2023-05-07T13:43:23;2.20;;;0.87;;
71570;SDS011;59407;42.682;23.322;2023-05-07T13:45:49;2.72;;;0.98;;
71570;SDS011;59407;42.682;23.322;2023-05-07T13:48:15;2.60;;;0.60;;
71570;SDS011;59407;42.682;23.322;2023-05-07T13:50:40;2.27;;;0.90;;
71570;SDS011;59407;42.682;23.322;2023-05-07T13:53:07;2.65;;;1.10;;
71570;SDS011;59407;42.682;23.322;2023-05-07T13:55:33;2.47;;;0.93;;
71570;SDS011;59407;42.682;23.322;2023-05-07T13:57:59;2.78;;;1.30;;
71570;SDS011;59407;42.682;23.322;2023-05-07T14:00:26;3.47;;;0.90;;
71570;SDS011;59407;42.682;23.322;2023-05-07T14:02:52;2.57;;;0.87;;
71570;SDS011;59407;42.682;23.322;2023-05-07T14:05:18;2.85;;;1.00;;
71570;SDS011;59407;42.682;23.322;2023-05-07T14:07:44;2.13;;;0.90;;
71570;SDS011;59407;42.682;23.322;2023-05-07T14:10:09;2.55;;;0.90;;
71570;SDS011;59407;42.682;23.322;2023-05-07T14:12:36;2.93;;;0.90;;
71570;SDS011;59407;42.682;23.322;2023-05-07T14:15:01;3.60;;;0.90;;
71570;SDS011;59407;42.682;23.322;2023-05-07T14:17:29;2.83;;;1.02;;
71570;SDS011;59407;42.682;23.322;2023-05-07T14:19:55;2.38;;;1.02;;
71570;SDS011;59407;42.682;23.322;2023-05-07T14:22:23;2.07;;;0.93;;
71570;SDS011;59407;42.682;23.322;2023-05-07T14:24:49;2.83;;;1.05;;
71570;SDS011;59407;42.682;23.322;2023-05-07T14:27:14;2.33;;;1.10;;
71570;SDS011;59407;42.682;23.322;2023-05-07T14:29:41;2.80;;;0.95;;
71570;SDS011;59407;42.682;23.322;2023-05-07T14:32:08;2.75;;;1.05;;
71570;SDS011;59407;42.682;23.322;2023-05-07T14:34:33;2.40;;;1.13;;
71570;SDS011;59407;42.682;23.322;2023-05-07T14:36:59;3.27;;;1.50;;
71570;SDS011;59407;42.682;23.322;2023-05-07T14:39:30;2.70;;;1.00;;
71570;SDS011;59407;42.682;23.322;2023-05-07T14:41:56;2.05;;;0.90;;
71570;SDS011;59407;42.682;23.322;2023-05-07T14:44:22;1.70;;;0.68;;
71570;SDS011;59407;42.682;23.322;2023-05-07T14:46:47;2.37;;;1.00;;
71570;SDS011;59407;42.682;23.322;2023-05-07T14:49:13;2.20;;;0.68;;
71570;SDS011;59407;42.682;23.322;2023-05-07T14:51:42;2.23;;;0.90;;